createdAt,value
2023-08-17T00:01:24.375Z,24.69
2023-08-17T00:03:52.243Z,24.69
2023-08-17T00:06:20.096Z,24.66
2023-08-17T00:08:47.992Z,24.62
2023-08-17T00:11:15.718Z,24.64
2023-08-17T00:13:44.811Z,24.63
2023-08-17T00:16:13.680Z,24.59
2023-08-17T00:18:41.902Z,24.60
2023-08-17T00:21:09.761Z,24.61
2023-08-17T00:23:37.633Z,24.62
2023-08-17T00:26:05.456Z,24.61
2023-08-17T00:28:33.195Z,24.61
2023-08-17T00:31:03.649Z,24.58
2023-08-17T00:33:31.626Z,24.52
2023-08-17T00:35:59.781Z,24.51
2023-08-17T00:38:27.828Z,24.45
2023-08-17T00:40:56.519Z,24.45
2023-08-17T00:43:25.472Z,24.40
2023-08-17T00:45:53.700Z,24.42
2023-08-17T00:48:23.130Z,24.41
2023-08-17T00:50:52.708Z,24.42
2023-08-17T00:53:21.417Z,24.40
2023-08-17T00:55:53.729Z,24.42
2023-08-17T00:58:23.283Z,24.43
2023-08-17T01:00:51.273Z,24.45
2023-08-17T01:03:20.916Z,24.48
2023-08-17T01:05:50.183Z,24.49
2023-08-17T01:08:17.969Z,24.48
2023-08-17T01:10:53.376Z,24.53
2023-08-17T01:13:26.510Z,24.50
2023-08-17T01:16:00.448Z,24.51
2023-08-17T01:18:32.391Z,24.48
2023-08-17T01:21:03.814Z,24.48
2023-08-17T01:23:33.084Z,24.43
2023-08-17T01:26:00.877Z,24.37
2023-08-17T01:28:29.816Z,24.30
2023-08-17T01:31:01.180Z,24.23
2023-08-17T01:33:33.364Z,24.21
2023-08-17T01:36:13.087Z,24.22
2023-08-17T01:38:46.612Z,24.21
2023-08-17T01:41:16.682Z,24.20
2023-08-17T01:43:47.718Z,24.21
2023-08-17T01:46:17.835Z,24.22
2023-08-17T01:48:46.317Z,24.20
2023-08-17T01:51:18.545Z,24.19
2023-08-17T01:53:47.913Z,24.21
2023-08-17T01:56:15.762Z,24.20
2023-08-17T01:58:43.771Z,24.17
2023-08-17T02:01:12.591Z,24.14
2023-08-17T02:03:40.442Z,24.14
2023-08-17T02:06:08.357Z,24.13
2023-08-17T02:08:39.459Z,24.11
2023-08-17T02:11:08.716Z,24.13
2023-08-17T02:13:37.425Z,24.11
2023-08-17T02:16:05.780Z,24.12
2023-08-17T02:18:35.749Z,24.09
2023-08-17T02:21:03.578Z,24.09
2023-08-17T02:23:31.369Z,24.10
2023-08-17T02:25:59.265Z,24.03
2023-08-17T02:28:28.435Z,24.05
2023-08-17T02:30:57.601Z,23.99
2023-08-17T02:33:25.585Z,23.96
2023-08-17T02:35:53.965Z,23.96
2023-08-17T02:38:22.109Z,23.94
2023-08-17T02:40:51.106Z,23.95
2023-08-17T02:43:18.917Z,23.94
2023-08-17T02:45:48.157Z,23.89
2023-08-17T02:48:16.010Z,23.87
2023-08-17T02:50:44.225Z,23.87
2023-08-17T02:53:12.077Z,23.89
2023-08-17T02:55:40.005Z,23.88
2023-08-17T02:58:10.138Z,23.87
2023-08-17T03:00:37.974Z,23.85
2023-08-17T03:03:07.484Z,23.83
2023-08-17T03:05:36.343Z,23.78
2023-08-17T03:08:04.705Z,23.77
2023-08-17T03:10:33.007Z,23.75
2023-08-17T03:13:00.899Z,23.78
2023-08-17T03:15:28.806Z,23.77
2023-08-17T03:17:56.682Z,23.77
2023-08-17T03:20:26.091Z,23.75
2023-08-17T03:22:53.824Z,23.75
2023-08-17T03:25:21.851Z,23.71
2023-08-17T03:27:49.673Z,23.67
2023-08-17T03:30:17.533Z,23.66
2023-08-17T03:32:45.415Z,23.66
2023-08-17T03:35:14.508Z,23.64
2023-08-17T03:37:44.985Z,23.55
2023-08-17T03:40:13.689Z,23.49
2023-08-17T03:42:42.996Z,23.45
2023-08-17T03:45:11.175Z,23.40
2023-08-17T03:47:39.023Z,23.39
2023-08-17T03:50:07.905Z,23.39
2023-08-17T03:52:35.744Z,23.40
2023-08-17T03:55:07.742Z,23.41
2023-08-17T03:57:37.658Z,23.34
2023-08-17T04:00:08.320Z,23.28
2023-08-17T04:02:41.605Z,23.27
2023-08-17T04:05:11.738Z,23.34
2023-08-17T04:07:39.784Z,23.33
2023-08-17T04:10:10.603Z,23.30
2023-08-17T04:12:38.402Z,23.29
2023-08-17T04:15:07.097Z,23.27
2023-08-17T04:17:35.061Z,23.28
2023-08-17T04:20:04.250Z,23.30
2023-08-17T04:22:32.322Z,23.22
2023-08-17T04:25:00.190Z,23.16
2023-08-17T04:27:29.415Z,23.10
2023-08-17T04:29:57.274Z,23.09
2023-08-17T04:32:26.142Z,23.13
2023-08-17T04:34:54.883Z,23.19
2023-08-17T04:37:23.060Z,23.16
2023-08-17T04:39:52.225Z,23.20
2023-08-17T04:42:22.214Z,23.28
2023-08-17T04:44:51.314Z,23.31
2023-08-17T04:47:19.113Z,23.28
2023-08-17T04:49:46.881Z,23.25
2023-08-17T04:52:15.520Z,23.22
2023-08-17T04:54:44.396Z,23.20
2023-08-17T04:57:12.537Z,23.18
2023-08-17T04:59:40.645Z,23.15
2023-08-17T05:02:10.229Z,23.09
2023-08-17T05:04:40.886Z,23.06
2023-08-17T05:07:09.114Z,23.07
2023-08-17T05:09:37.131Z,23.14
2023-08-17T05:12:06.309Z,23.15
2023-08-17T05:14:34.189Z,23.13
2023-08-17T05:17:02.140Z,23.08
2023-08-17T05:19:31.413Z,23.07
2023-08-17T05:22:00.203Z,23.12
2023-08-17T05:24:28.507Z,23.13
2023-08-17T05:26:56.628Z,23.16
2023-08-17T05:29:24.627Z,23.04
2023-08-17T05:31:52.617Z,23.04
2023-08-17T05:34:20.459Z,23.02
2023-08-17T05:36:49.697Z,23.04
2023-08-17T05:39:17.515Z,23.02
2023-08-17T05:41:46.112Z,22.99
2023-08-17T05:44:16.311Z,22.97
2023-08-17T05:46:44.171Z,22.82
2023-08-17T05:49:12.014Z,22.79
2023-08-17T05:51:39.845Z,22.84
2023-08-17T05:54:08.973Z,22.78
2023-08-17T05:56:36.773Z,22.78
2023-08-17T05:59:05.080Z,22.73
2023-08-17T06:01:33.364Z,22.59
2023-08-17T06:04:01.129Z,22.54
2023-08-17T06:06:28.942Z,22.60
2023-08-17T06:08:56.928Z,22.38
2023-08-17T06:11:26.074Z,22.48
2023-08-17T06:13:53.831Z,22.49
2023-08-17T06:16:21.616Z,22.41
2023-08-17T06:18:49.475Z,22.36
2023-08-17T06:21:17.354Z,22.35
2023-08-17T06:23:45.509Z,22.44
2023-08-17T06:26:13.909Z,22.42
2023-08-17T06:28:43.121Z,22.40
2023-08-17T06:31:11.029Z,22.32
2023-08-17T06:33:38.853Z,22.21
2023-08-17T06:36:06.816Z,22.17
2023-08-17T06:38:34.748Z,22.14
2023-08-17T06:41:02.731Z,22.14
2023-08-17T06:43:30.543Z,22.11
2023-08-17T06:46:01.494Z,22.11
2023-08-17T06:48:29.364Z,22.07
2023-08-17T06:50:57.269Z,22.04
2023-08-17T06:53:27.283Z,22.00
2023-08-17T06:55:55.262Z,22.01
2023-08-17T06:58:23.041Z,21.94
2023-08-17T07:00:50.939Z,21.94
2023-08-17T07:03:21.499Z,21.98
2023-08-17T07:05:49.551Z,21.83
2023-08-17T07:08:18.162Z,21.72
2023-08-17T07:10:46.037Z,21.62
2023-08-17T07:13:14.520Z,21.67
2023-08-17T07:15:42.869Z,21.72
2023-08-17T07:18:10.962Z,21.73
2023-08-17T07:20:40.163Z,21.68
2023-08-17T07:23:08.036Z,21.62
2023-08-17T07:25:35.895Z,21.58
2023-08-17T07:28:03.764Z,21.52
2023-08-17T07:30:31.525Z,21.51
2023-08-17T07:32:59.552Z,21.52
2023-08-17T07:35:27.716Z,21.57
2023-08-17T07:38:08.335Z,21.57
2023-08-17T07:40:37.753Z,21.62
2023-08-17T07:43:06.040Z,21.63
2023-08-17T07:45:34.010Z,21.75
2023-08-17T07:48:02.007Z,21.78
2023-08-17T07:50:30.111Z,21.77
2023-08-17T07:52:59.347Z,21.73
2023-08-17T07:55:28.695Z,21.72
2023-08-17T07:57:56.585Z,21.73
2023-08-17T08:00:24.390Z,21.85
2023-08-17T08:02:52.280Z,21.85
2023-08-17T08:05:20.196Z,21.91
2023-08-17T08:07:48.043Z,21.82
2023-08-17T08:10:17.488Z,21.88
2023-08-17T08:12:45.555Z,21.84
2023-08-17T08:15:13.997Z,21.74
2023-08-17T08:17:42.078Z,21.77
2023-08-17T08:20:11.035Z,21.79
2023-08-17T08:22:38.952Z,21.82
2023-08-17T08:25:07.166Z,21.84
2023-08-17T08:27:36.653Z,21.86
2023-08-17T08:30:05.259Z,21.87
2023-08-17T08:32:33.102Z,21.89
2023-08-17T08:35:01.013Z,21.94
2023-08-17T08:37:29.131Z,21.95
2023-08-17T08:39:57.653Z,21.93
2023-08-17T08:42:27.539Z,22.02
2023-08-17T08:44:57.032Z,22.01
2023-08-17T08:47:26.604Z,22.03
2023-08-17T08:50:02.352Z,21.92
2023-08-17T08:52:36.192Z,21.99
2023-08-17T08:55:13.216Z,21.94
2023-08-17T08:57:43.222Z,22.01
2023-08-17T09:00:14.822Z,22.06
2023-08-17T09:02:44.318Z,22.18
2023-08-17T09:05:13.225Z,22.15
2023-08-17T09:07:41.874Z,22.16
2023-08-17T09:10:11.683Z,22.26
2023-08-17T09:12:42.011Z,22.24
2023-08-17T09:15:12.818Z,22.32
2023-08-17T09:17:40.854Z,22.38
2023-08-17T09:20:11.308Z,22.43
2023-08-17T09:22:40.583Z,22.50
2023-08-17T09:25:09.724Z,22.46
2023-08-17T09:27:38.752Z,22.37
2023-08-17T09:30:08.227Z,22.43
2023-08-17T09:32:37.613Z,22.52
2023-08-17T09:35:06.721Z,22.59
2023-08-17T09:37:34.961Z,22.66
2023-08-17T09:40:03.098Z,22.67
2023-08-17T09:42:32.303Z,22.67
2023-08-17T09:45:02.256Z,22.78
2023-08-17T09:47:31.303Z,22.79
2023-08-17T09:50:00.611Z,22.68
2023-08-17T09:52:28.897Z,22.68
2023-08-17T09:54:57.724Z,22.39
2023-08-17T09:57:26.501Z,22.53
2023-08-17T09:59:56.600Z,22.69
2023-08-17T10:02:26.344Z,22.72
2023-08-17T10:04:55.718Z,22.77
2023-08-17T10:07:34.341Z,22.80
2023-08-17T10:10:05.545Z,22.82
2023-08-17T10:12:39.057Z,22.86
2023-08-17T10:15:10.511Z,22.89
2023-08-17T10:17:45.930Z,23.02
2023-08-17T10:20:16.659Z,23.06
2023-08-17T10:22:54.054Z,23.00
2023-08-17T10:25:23.861Z,23.04
2023-08-17T10:27:53.283Z,23.02
2023-08-17T10:30:21.254Z,23.02
2023-08-17T10:32:49.625Z,22.99
2023-08-17T10:35:18.193Z,22.93
2023-08-17T10:37:47.712Z,22.91
2023-08-17T10:40:16.348Z,22.87
2023-08-17T10:42:47.437Z,22.89
2023-08-17T10:45:31.524Z,22.95
2023-08-17T10:48:37.239Z,23.00
2023-08-17T10:51:07.306Z,22.98
2023-08-17T10:53:40.065Z,23.07
2023-08-17T10:56:14.610Z,23.08
2023-08-17T10:58:45.537Z,23.10
2023-08-17T11:01:15.431Z,23.08
2023-08-17T11:03:45.809Z,23.00
2023-08-17T11:06:19.261Z,23.08
2023-08-17T11:08:55.851Z,23.19
2023-08-17T11:11:25.001Z,23.24
2023-08-17T11:13:57.828Z,23.12
2023-08-17T11:16:26.518Z,23.30
2023-08-17T11:18:58.854Z,23.38
2023-08-17T11:21:26.764Z,23.42
2023-08-17T11:23:58.252Z,23.45
2023-08-17T11:26:26.868Z,23.51
2023-08-17T11:28:55.103Z,23.52
2023-08-17T11:31:22.941Z,23.41
2023-08-17T11:33:55.778Z,23.43
2023-08-17T11:36:25.433Z,23.49
2023-08-17T11:38:54.803Z,23.42
2023-08-17T11:41:22.745Z,23.42
2023-08-17T11:43:51.979Z,23.50
2023-08-17T11:46:20.026Z,23.64
2023-08-17T11:48:49.659Z,23.77
2023-08-17T11:51:17.508Z,23.89
2023-08-17T11:56:18.043Z,23.89
2023-08-17T11:58:48.434Z,23.95
2023-08-17T12:01:18.215Z,23.94
2023-08-17T12:03:47.092Z,23.93
2023-08-17T12:06:16.029Z,23.94
2023-08-17T12:08:47.876Z,23.77
2023-08-17T12:11:17.857Z,23.79
2023-08-17T12:13:46.808Z,23.81
2023-08-17T12:16:17.235Z,23.74
2023-08-17T12:18:46.574Z,23.74
2023-08-17T12:21:14.585Z,23.67
2023-08-17T12:23:42.984Z,23.61
2023-08-17T12:26:12.318Z,23.55
2023-08-17T12:28:42.368Z,23.52
2023-08-17T12:31:10.345Z,23.49
2023-08-17T12:33:38.255Z,23.43
2023-08-17T12:36:07.907Z,23.42
2023-08-17T12:38:36.006Z,23.49
2023-08-17T12:41:07.471Z,23.50
2023-08-17T12:43:36.860Z,23.52
2023-08-17T12:46:05.286Z,23.62
2023-08-17T12:48:36.268Z,23.70
2023-08-17T12:51:05.567Z,23.68
2023-08-17T12:53:34.057Z,23.60
2023-08-17T12:56:02.187Z,23.60
2023-08-17T12:58:30.118Z,23.58
2023-08-17T13:00:59.291Z,23.64
2023-08-17T13:03:27.285Z,23.62
2023-08-17T13:05:55.154Z,23.55
2023-08-17T13:08:22.971Z,23.50
2023-08-17T13:10:50.876Z,23.49
2023-08-17T13:13:18.844Z,23.54
2023-08-17T13:15:46.803Z,23.58
2023-08-17T13:18:16.820Z,23.48
2023-08-17T13:20:44.680Z,23.46
2023-08-17T13:23:12.555Z,23.42
2023-08-17T13:25:40.370Z,23.47
2023-08-17T13:28:08.272Z,23.49
2023-08-17T13:30:36.235Z,23.47
2023-08-17T13:33:04.623Z,23.34
2023-08-17T13:35:33.863Z,23.30
2023-08-17T13:38:04.041Z,23.30
2023-08-17T13:40:32.339Z,23.33
2023-08-17T13:43:01.758Z,23.34
2023-08-17T13:45:29.585Z,23.29
2023-08-17T13:47:57.406Z,23.29
2023-08-17T13:50:25.364Z,23.22
2023-08-17T13:52:54.599Z,23.20
2023-08-17T13:55:22.428Z,23.09
2023-08-17T13:57:50.247Z,23.08
2023-08-17T14:00:18.348Z,23.11
2023-08-17T14:02:46.834Z,23.18
2023-08-17T14:05:14.732Z,23.31
2023-08-17T14:07:42.597Z,23.36
2023-08-17T14:10:21.589Z,23.36
2023-08-17T14:12:57.103Z,23.33
2023-08-17T14:15:25.455Z,23.29
2023-08-17T14:17:53.291Z,23.37
2023-08-17T14:20:21.298Z,23.38
2023-08-17T14:22:49.176Z,23.35
2023-08-17T14:25:18.659Z,23.41
2023-08-17T14:27:46.629Z,23.43
2023-08-17T14:30:15.784Z,23.43
2023-08-17T14:32:43.653Z,23.43
2023-08-17T14:35:13.190Z,23.45
2023-08-17T14:37:41.267Z,23.45
2023-08-17T14:40:10.340Z,23.52
2023-08-17T14:42:39.861Z,23.53
2023-08-17T14:45:09.072Z,23.44
2023-08-17T14:47:36.976Z,23.29
2023-08-17T14:50:05.282Z,23.33
2023-08-17T14:52:34.322Z,23.37
2023-08-17T14:55:02.568Z,23.43
2023-08-17T14:57:30.317Z,23.39
2023-08-17T14:59:59.512Z,23.25
2023-08-17T15:02:28.884Z,23.19
2023-08-17T15:04:56.893Z,23.19
2023-08-17T15:07:24.980Z,23.27
2023-08-17T15:09:53.947Z,23.31
2023-08-17T15:12:24.409Z,23.32
2023-08-17T15:14:52.481Z,23.34
2023-08-17T15:17:21.701Z,23.33
2023-08-17T15:19:49.437Z,23.33
2023-08-17T15:22:17.404Z,23.26
2023-08-17T15:24:46.376Z,23.29
2023-08-17T15:27:14.716Z,23.29
2023-08-17T15:29:42.696Z,23.23
2023-08-17T15:32:11.313Z,23.23
2023-08-17T15:34:41.473Z,23.18
2023-08-17T15:37:09.715Z,23.15
2023-08-17T15:39:37.746Z,23.20
2023-08-17T15:42:06.209Z,23.21
2023-08-17T15:44:33.940Z,23.15
2023-08-17T15:47:03.015Z,23.14
2023-08-17T15:49:30.962Z,22.98
2023-08-17T15:52:00.666Z,23.04
2023-08-17T15:54:36.025Z,22.99
2023-08-17T15:57:06.074Z,23.01
2023-08-17T15:59:34.077Z,22.99
2023-08-17T16:02:02.215Z,23.07
2023-08-17T16:04:30.211Z,23.04
2023-08-17T16:06:58.288Z,22.98
2023-08-17T16:09:30.629Z,23.05
2023-08-17T16:11:58.983Z,23.13
2023-08-17T16:14:26.905Z,23.07
2023-08-17T16:16:57.601Z,23.05
2023-08-17T16:19:25.722Z,23.07
2023-08-17T16:21:53.605Z,23.04
2023-08-17T16:24:26.462Z,23.01
2023-08-17T16:26:56.651Z,23.04
2023-08-17T16:29:24.460Z,23.04
2023-08-17T16:32:08.933Z,23.11
2023-08-17T16:34:37.149Z,23.12
2023-08-17T16:37:05.007Z,23.05
2023-08-17T16:39:32.926Z,22.99
2023-08-17T16:42:02.083Z,22.99
2023-08-17T16:44:30.032Z,22.97
2023-08-17T16:46:57.773Z,23.03
2023-08-17T16:51:56.651Z,23.04
2023-08-17T16:54:24.513Z,23.11
2023-08-17T16:56:53.607Z,23.10
2023-08-17T16:59:23.265Z,23.07
2023-08-17T17:01:51.135Z,23.03
2023-08-17T17:04:19.287Z,23.05
2023-08-17T17:06:47.437Z,23.05
2023-08-17T17:09:15.121Z,23.04
2023-08-17T17:11:43.009Z,23.03
2023-08-17T17:14:11.058Z,22.99
2023-08-17T17:16:40.358Z,23.04
2023-08-17T17:19:08.206Z,23.05
2023-08-17T17:21:36.095Z,23.04
2023-08-17T17:24:04.724Z,23.09
2023-08-17T17:26:33.064Z,23.09
2023-08-17T17:29:01.877Z,23.03
2023-08-17T17:31:30.281Z,23.05
2023-08-17T17:33:59.676Z,23.02
2023-08-17T17:36:27.653Z,22.89
2023-08-17T17:38:56.094Z,22.90
2023-08-17T17:41:23.949Z,22.85
2023-08-17T17:43:51.798Z,22.80
2023-08-17T17:46:20.072Z,22.76
2023-08-17T17:48:48.001Z,22.75
2023-08-17T17:51:17.720Z,22.80
2023-08-17T17:53:45.630Z,22.81
2023-08-17T17:56:14.004Z,22.78
2023-08-17T17:58:41.950Z,22.87
2023-08-17T18:01:10.109Z,22.89
2023-08-17T18:03:38.051Z,22.90
2023-08-17T18:06:06.281Z,22.90
2023-08-17T18:08:37.552Z,22.89
2023-08-17T18:11:05.719Z,22.90
2023-08-17T18:13:33.518Z,22.92
2023-08-17T18:16:01.277Z,22.95
2023-08-17T18:18:29.150Z,22.96
2023-08-17T18:20:57.164Z,22.95
2023-08-17T18:23:24.934Z,22.92
2023-08-17T18:25:54.158Z,22.82
2023-08-17T18:28:21.998Z,22.84
2023-08-17T18:30:49.900Z,22.78
2023-08-17T18:33:18.096Z,22.79
2023-08-17T18:35:45.964Z,22.72
2023-08-17T18:38:13.754Z,22.65
2023-08-17T18:40:41.737Z,22.66
2023-08-17T18:43:10.949Z,22.63
2023-08-17T18:45:38.719Z,22.69
2023-08-17T18:48:07.401Z,22.73
2023-08-17T18:50:35.792Z,22.77
2023-08-17T18:53:04.443Z,22.76
2023-08-17T18:55:33.080Z,22.79
2023-08-17T18:58:01.767Z,22.78
2023-08-17T19:00:30.998Z,22.72
2023-08-17T19:02:59.039Z,22.72
2023-08-17T19:05:27.051Z,22.70
2023-08-17T19:07:54.827Z,22.69
2023-08-17T19:10:22.718Z,22.68
2023-08-17T19:12:50.559Z,22.64
2023-08-17T19:15:18.373Z,22.64
2023-08-17T19:17:47.605Z,22.58
2023-08-17T19:20:15.740Z,22.61
2023-08-17T19:22:43.643Z,22.58
2023-08-17T19:25:11.860Z,22.57
2023-08-17T19:27:41.208Z,22.50
2023-08-17T19:30:11.572Z,22.49
2023-08-17T19:32:41.350Z,22.46
2023-08-17T19:35:10.983Z,22.41
2023-08-17T19:37:39.167Z,22.43
2023-08-17T19:40:09.010Z,22.41
2023-08-17T19:42:36.935Z,22.43
2023-08-17T19:45:05.859Z,22.41
2023-08-17T19:47:33.694Z,22.40
2023-08-17T19:50:01.630Z,22.38
2023-08-17T19:52:31.013Z,22.38
2023-08-17T19:54:59.070Z,22.31
2023-08-17T19:57:27.444Z,22.32
2023-08-17T19:59:55.321Z,22.34
2023-08-17T20:02:23.376Z,22.32
2023-08-17T20:04:51.172Z,22.26
2023-08-17T20:07:20.379Z,22.27
2023-08-17T20:09:49.522Z,22.24
2023-08-17T20:12:17.355Z,22.22
2023-08-17T20:14:45.198Z,22.18
2023-08-17T20:17:13.227Z,22.16
2023-08-17T20:19:41.002Z,22.14
2023-08-17T20:22:08.898Z,22.13
2023-08-17T20:24:35.684Z,22.15
2023-08-17T20:27:06.352Z,22.18
2023-08-17T20:29:34.368Z,22.16
2023-08-17T20:32:02.295Z,22.18
2023-08-17T20:34:30.351Z,22.17
2023-08-17T20:36:58.213Z,22.16
2023-08-17T20:39:26.018Z,22.18
2023-08-17T20:41:55.351Z,22.17
2023-08-17T20:44:24.466Z,22.18
2023-08-17T20:46:52.382Z,22.13
2023-08-17T20:49:21.796Z,22.17
2023-08-17T20:51:51.334Z,22.17
2023-08-17T20:54:19.158Z,22.20
2023-08-17T20:56:46.957Z,22.17
2023-08-17T20:59:14.849Z,21.98
2023-08-17T21:01:44.137Z,22.06
2023-08-17T21:04:11.964Z,22.05
2023-08-17T21:06:42.189Z,22.06
2023-08-17T21:09:10.914Z,22.09
2023-08-17T21:11:39.096Z,22.06
2023-08-17T21:14:07.537Z,22.07
2023-08-17T21:16:37.075Z,22.10
2023-08-17T21:19:07.238Z,22.06
2023-08-17T21:21:35.353Z,22.05
2023-08-17T21:24:03.814Z,22.04
2023-08-17T21:26:31.617Z,22.08
2023-08-17T21:28:59.428Z,22.08
2023-08-17T21:31:27.338Z,22.02
2023-08-17T21:33:55.126Z,22.03
2023-08-17T21:36:25.159Z,22.05
2023-08-17T21:38:52.955Z,22.11
2023-08-17T21:41:20.692Z,22.11
2023-08-17T21:43:48.561Z,22.13
2023-08-17T21:46:16.741Z,22.18
2023-08-17T21:48:44.633Z,22.24
2023-08-17T21:51:12.506Z,22.34
2023-08-17T21:53:41.775Z,22.39
2023-08-17T21:56:09.589Z,22.47
2023-08-17T21:58:37.447Z,22.50
2023-08-17T22:01:05.934Z,22.50
2023-08-17T22:03:34.123Z,22.52
2023-08-17T22:06:06.679Z,22.56
2023-08-17T22:08:34.745Z,22.62
2023-08-17T22:11:22.695Z,22.71
2023-08-17T22:13:50.460Z,22.66
2023-08-17T22:16:18.282Z,22.70
2023-08-17T22:18:46.695Z,22.66
2023-08-17T22:21:14.649Z,22.64
2023-08-17T22:23:42.418Z,22.67
2023-08-17T22:26:11.318Z,22.68
2023-08-17T22:28:40.435Z,22.66
2023-08-17T22:31:09.606Z,22.68
2023-08-17T22:33:37.783Z,22.75
2023-08-17T22:36:06.801Z,22.73
2023-08-17T22:38:34.874Z,22.68
2023-08-17T22:41:02.768Z,22.66
2023-08-17T22:43:30.672Z,22.65
2023-08-17T22:45:59.949Z,22.65
2023-08-17T22:48:27.959Z,22.67
2023-08-17T22:50:55.691Z,22.67
2023-08-17T22:53:23.693Z,22.66
2023-08-17T22:55:51.631Z,22.64
2023-08-17T22:58:19.664Z,22.66
2023-08-17T23:00:47.788Z,22.64
2023-08-17T23:03:17.415Z,22.58
2023-08-17T23:05:45.812Z,22.57
2023-08-17T23:08:13.626Z,22.52
2023-08-17T23:10:41.778Z,22.50
2023-08-17T23:13:10.194Z,22.56
2023-08-17T23:15:38.118Z,22.61
2023-08-17T23:18:06.649Z,22.62
2023-08-17T23:20:36.133Z,22.63
2023-08-17T23:23:04.751Z,22.65
2023-08-17T23:25:33.511Z,22.67
2023-08-17T23:28:01.421Z,22.64
2023-08-17T23:30:29.324Z,22.63
2023-08-17T23:32:58.836Z,22.58
2023-08-17T23:35:26.920Z,22.57
2023-08-17T23:37:56.500Z,22.57
2023-08-17T23:40:24.221Z,22.54
2023-08-17T23:42:52.000Z,22.55
2023-08-17T23:45:19.748Z,22.53
2023-08-17T23:47:48.076Z,22.51
2023-08-17T23:50:16.706Z,22.51
2023-08-17T23:52:44.679Z,22.51
2023-08-17T23:55:14.486Z,22.50
2023-08-17T23:57:42.320Z,22.47
